sensor_id;sensor_type;location;lat;lon;timestamp;P1;durP1;ratioP1;P2;durP2;ratioP2
64351;SDS011;50680;52.626;-8.668;2022-10-16T00:01:08;4.20;;;0.30;;
64351;SDS011;50680;52.626;-8.668;2022-10-16T00:03:38;2.22;;;0.25;;
64351;SDS011;50680;52.626;-8.668;2022-10-16T00:06:06;0.68;;;0.17;;
64351;SDS011;50680;52.626;-8.668;2022-10-16T00:08:34;2.13;;;0.10;;
64351;SDS011;50680;52.626;-8.668;2022-10-16T00:13:34;4.70;;;0.55;;
64351;SDS011;50680;52.626;-8.668;2022-10-16T00:16:02;1.27;;;0.10;;
64351;SDS011;50680;52.626;-8.668;2022-10-16T00:18:30;4.28;;;0.52;;
64351;SDS011;50680;52.626;-8.668;2022-10-16T00:21:04;1.10;;;0.20;;
64351;SDS011;50680;52.626;-8.668;2022-10-16T00:23:33;0.93;;;0.17;;
64351;SDS011;50680;52.626;-8.668;2022-10-16T00:26:04;0.93;;;0.20;;
64351;SDS011;50680;52.626;-8.668;2022-10-16T00:28:33;1.98;;;0.30;;
64351;SDS011;50680;52.626;-8.668;2022-10-16T00:31:08;2.70;;;0.30;;
64351;SDS011;50680;52.626;-8.668;2022-10-16T00:33:37;2.25;;;0.32;;
64351;SDS011;50680;52.626;-8.668;2022-10-16T00:36:06;7.82;;;0.47;;
64351;SDS011;50680;52.626;-8.668;2022-10-16T00:38:34;1.58;;;0.10;;
64351;SDS011;50680;52.626;-8.668;2022-10-16T00:41:01;1.52;;;0.20;;
64351;SDS011;50680;52.626;-8.668;2022-10-16T00:46:02;0.82;;;0.20;;
64351;SDS011;50680;52.626;-8.668;2022-10-16T00:48:32;0.80;;;0.20;;
64351;SDS011;50680;52.626;-8.668;2022-10-16T00:50:59;0.35;;;0.10;;
64351;SDS011;50680;52.626;-8.668;2022-10-16T00:53:26;0.95;;;0.20;;
64351;SDS011;50680;52.626;-8.668;2022-10-16T00:55:53;3.20;;;0.20;;
64351;SDS011;50680;52.626;-8.668;2022-10-16T00:58:21;1.50;;;0.13;;
64351;SDS011;50680;52.626;-8.668;2022-10-16T01:00:48;3.08;;;0.28;;
64351;SDS011;50680;52.626;-8.668;2022-10-16T01:03:26;2.45;;;0.30;;
64351;SDS011;50680;52.626;-8.668;2022-10-16T01:11:32;1.67;;;0.20;;
64351;SDS011;50680;52.626;-8.668;2022-10-16T01:14:24;4.40;;;0.30;;
64351;SDS011;50680;52.626;-8.668;2022-10-16T01:17:11;2.85;;;0.22;;
64351;SDS011;50680;52.626;-8.668;2022-10-16T01:20:02;4.53;;;0.25;;
64351;SDS011;50680;52.626;-8.668;2022-10-16T01:22:59;7.20;;;0.28;;
64351;SDS011;50680;52.626;-8.668;2022-10-16T01:25:36;1.15;;;0.20;;
64351;SDS011;50680;52.626;-8.668;2022-10-16T01:28:18;6.50;;;0.40;;
64351;SDS011;50680;52.626;-8.668;2022-10-16T01:30:49;3.05;;;0.70;;
64351;SDS011;50680;52.626;-8.668;2022-10-16T01:33:21;2.63;;;0.35;;
64351;SDS011;50680;52.626;-8.668;2022-10-16T01:35:55;4.47;;;0.35;;
64351;SDS011;50680;52.626;-8.668;2022-10-16T01:41:11;6.03;;;0.55;;
64351;SDS011;50680;52.626;-8.668;2022-10-16T01:43:44;2.90;;;0.38;;
64351;SDS011;50680;52.626;-8.668;2022-10-16T01:46:17;4.47;;;0.40;;
64351;SDS011;50680;52.626;-8.668;2022-10-16T01:48:47;1.60;;;0.22;;
64351;SDS011;50680;52.626;-8.668;2022-10-16T01:51:16;1.75;;;0.30;;
64351;SDS011;50680;52.626;-8.668;2022-10-16T01:53:47;5.78;;;0.90;;
64351;SDS011;50680;52.626;-8.668;2022-10-16T01:56:18;1.95;;;0.30;;
64351;SDS011;50680;52.626;-8.668;2022-10-16T01:58:50;4.77;;;1.23;;
64351;SDS011;50680;52.626;-8.668;2022-10-16T02:01:38;2.05;;;0.32;;
64351;SDS011;50680;52.626;-8.668;2022-10-16T02:04:11;5.95;;;0.35;;
64351;SDS011;50680;52.626;-8.668;2022-10-16T02:06:45;3.95;;;0.30;;
64351;SDS011;50680;52.626;-8.668;2022-10-16T02:09:12;3.63;;;0.30;;
64351;SDS011;50680;52.626;-8.668;2022-10-16T02:11:42;2.53;;;0.20;;
64351;SDS011;50680;52.626;-8.668;2022-10-16T02:14:10;6.07;;;0.38;;
64351;SDS011;50680;52.626;-8.668;2022-10-16T02:16:41;3.65;;;0.25;;
64351;SDS011;50680;52.626;-8.668;2022-10-16T02:19:12;4.38;;;0.63;;
64351;SDS011;50680;52.626;-8.668;2022-10-16T02:30:13;6.85;;;0.32;;
64351;SDS011;50680;52.626;-8.668;2022-10-16T02:32:46;2.78;;;0.40;;
64351;SDS011;50680;52.626;-8.668;2022-10-16T02:35:15;3.90;;;0.80;;
64351;SDS011;50680;52.626;-8.668;2022-10-16T02:37:45;2.55;;;0.38;;
64351;SDS011;50680;52.626;-8.668;2022-10-16T02:40:14;6.30;;;0.45;;
64351;SDS011;50680;52.626;-8.668;2022-10-16T02:42:49;4.47;;;0.40;;
64351;SDS011;50680;52.626;-8.668;2022-10-16T02:45:18;4.20;;;0.50;;
64351;SDS011;50680;52.626;-8.668;2022-10-16T02:47:46;3.42;;;0.40;;
64351;SDS011;50680;52.626;-8.668;2022-10-16T02:50:13;3.90;;;0.80;;
64351;SDS011;50680;52.626;-8.668;2022-10-16T02:52:40;4.05;;;0.30;;
64351;SDS011;50680;52.626;-8.668;2022-10-16T02:55:08;4.03;;;0.40;;
64351;SDS011;50680;52.626;-8.668;2022-10-16T02:57:35;6.40;;;0.80;;
64351;SDS011;50680;52.626;-8.668;2022-10-16T03:00:04;3.63;;;0.68;;
64351;SDS011;50680;52.626;-8.668;2022-10-16T03:02:31;8.75;;;0.57;;
64351;SDS011;50680;52.626;-8.668;2022-10-16T03:04:58;6.85;;;0.75;;
64351;SDS011;50680;52.626;-8.668;2022-10-16T03:07:25;8.07;;;0.50;;
64351;SDS011;50680;52.626;-8.668;2022-10-16T03:09:53;8.85;;;0.40;;
64351;SDS011;50680;52.626;-8.668;2022-10-16T03:12:21;3.72;;;0.20;;
64351;SDS011;50680;52.626;-8.668;2022-10-16T03:14:48;7.18;;;0.40;;
64351;SDS011;50680;52.626;-8.668;2022-10-16T03:17:15;3.90;;;0.30;;
64351;SDS011;50680;52.626;-8.668;2022-10-16T03:19:43;4.07;;;0.20;;
64351;SDS011;50680;52.626;-8.668;2022-10-16T03:22:10;2.95;;;0.22;;
64351;SDS011;50680;52.626;-8.668;2022-10-16T03:24:37;5.22;;;0.40;;
64351;SDS011;50680;52.626;-8.668;2022-10-16T03:27:04;2.65;;;0.40;;
64351;SDS011;50680;52.626;-8.668;2022-10-16T03:29:31;6.03;;;0.47;;
64351;SDS011;50680;52.626;-8.668;2022-10-16T03:31:59;3.50;;;0.32;;
64351;SDS011;50680;52.626;-8.668;2022-10-16T03:34:26;5.18;;;0.50;;
64351;SDS011;50680;52.626;-8.668;2022-10-16T03:36:54;6.00;;;0.35;;
64351;SDS011;50680;52.626;-8.668;2022-10-16T03:39:21;3.38;;;0.35;;
64351;SDS011;50680;52.626;-8.668;2022-10-16T03:41:48;2.40;;;0.30;;
64351;SDS011;50680;52.626;-8.668;2022-10-16T03:44:15;2.05;;;0.40;;
64351;SDS011;50680;52.626;-8.668;2022-10-16T03:46:42;7.85;;;0.68;;
64351;SDS011;50680;52.626;-8.668;2022-10-16T03:49:08;2.08;;;0.30;;
64351;SDS011;50680;52.626;-8.668;2022-10-16T03:51:35;10.90;;;0.95;;
64351;SDS011;50680;52.626;-8.668;2022-10-16T03:54:02;7.95;;;0.40;;
64351;SDS011;50680;52.626;-8.668;2022-10-16T03:56:29;5.72;;;0.50;;
64351;SDS011;50680;52.626;-8.668;2022-10-16T03:58:56;1.67;;;0.32;;
64351;SDS011;50680;52.626;-8.668;2022-10-16T04:01:23;8.95;;;0.60;;
64351;SDS011;50680;52.626;-8.668;2022-10-16T04:03:51;2.92;;;0.38;;
64351;SDS011;50680;52.626;-8.668;2022-10-16T04:06:17;4.32;;;1.13;;
64351;SDS011;50680;52.626;-8.668;2022-10-16T04:08:44;1.85;;;0.40;;
64351;SDS011;50680;52.626;-8.668;2022-10-16T04:11:11;1.10;;;0.40;;
64351;SDS011;50680;52.626;-8.668;2022-10-16T04:13:38;2.58;;;0.40;;
64351;SDS011;50680;52.626;-8.668;2022-10-16T04:16:05;3.25;;;0.30;;
64351;SDS011;50680;52.626;-8.668;2022-10-16T04:18:32;4.53;;;0.30;;
64351;SDS011;50680;52.626;-8.668;2022-10-16T04:21:03;3.85;;;0.45;;
64351;SDS011;50680;52.626;-8.668;2022-10-16T04:23:31;1.17;;;0.30;;
64351;SDS011;50680;52.626;-8.668;2022-10-16T04:25:59;1.00;;;0.28;;
64351;SDS011;50680;52.626;-8.668;2022-10-16T04:28:26;2.47;;;0.98;;
64351;SDS011;50680;52.626;-8.668;2022-10-16T04:30:54;1.67;;;0.40;;
64351;SDS011;50680;52.626;-8.668;2022-10-16T04:33:21;6.63;;;0.38;;
64351;SDS011;50680;52.626;-8.668;2022-10-16T04:35:48;4.55;;;0.38;;
64351;SDS011;50680;52.626;-8.668;2022-10-16T04:38:15;4.70;;;0.40;;
64351;SDS011;50680;52.626;-8.668;2022-10-16T04:40:42;9.23;;;0.47;;
64351;SDS011;50680;52.626;-8.668;2022-10-16T04:43:09;2.80;;;0.60;;
64351;SDS011;50680;52.626;-8.668;2022-10-16T04:45:37;6.55;;;0.43;;
64351;SDS011;50680;52.626;-8.668;2022-10-16T04:48:03;4.55;;;0.40;;
64351;SDS011;50680;52.626;-8.668;2022-10-16T04:50:30;6.68;;;0.85;;
64351;SDS011;50680;52.626;-8.668;2022-10-16T04:52:57;2.50;;;0.45;;
64351;SDS011;50680;52.626;-8.668;2022-10-16T04:55:24;3.38;;;0.50;;
64351;SDS011;50680;52.626;-8.668;2022-10-16T04:57:51;7.38;;;0.60;;
64351;SDS011;50680;52.626;-8.668;2022-10-16T05:00:18;7.93;;;1.50;;
64351;SDS011;50680;52.626;-8.668;2022-10-16T05:02:45;5.18;;;0.50;;
64351;SDS011;50680;52.626;-8.668;2022-10-16T05:05:12;3.05;;;0.35;;
64351;SDS011;50680;52.626;-8.668;2022-10-16T05:07:40;5.13;;;0.57;;
64351;SDS011;50680;52.626;-8.668;2022-10-16T05:10:07;5.70;;;0.45;;
64351;SDS011;50680;52.626;-8.668;2022-10-16T05:12:34;3.60;;;0.50;;
64351;SDS011;50680;52.626;-8.668;2022-10-16T05:15:01;4.55;;;0.60;;
64351;SDS011;50680;52.626;-8.668;2022-10-16T05:17:28;7.53;;;0.82;;
64351;SDS011;50680;52.626;-8.668;2022-10-16T05:19:55;6.40;;;0.68;;
64351;SDS011;50680;52.626;-8.668;2022-10-16T05:22:22;3.40;;;0.50;;
64351;SDS011;50680;52.626;-8.668;2022-10-16T05:24:49;10.15;;;0.73;;
64351;SDS011;50680;52.626;-8.668;2022-10-16T05:27:16;7.82;;;0.90;;
64351;SDS011;50680;52.626;-8.668;2022-10-16T05:29:46;7.25;;;1.42;;
64351;SDS011;50680;52.626;-8.668;2022-10-16T05:32:15;7.22;;;1.00;;
64351;SDS011;50680;52.626;-8.668;2022-10-16T05:34:44;2.67;;;0.63;;
64351;SDS011;50680;52.626;-8.668;2022-10-16T05:37:11;3.00;;;0.90;;
64351;SDS011;50680;52.626;-8.668;2022-10-16T05:39:38;6.00;;;1.27;;
64351;SDS011;50680;52.626;-8.668;2022-10-16T05:42:06;5.45;;;1.98;;
64351;SDS011;50680;52.626;-8.668;2022-10-16T05:44:33;5.53;;;1.30;;
64351;SDS011;50680;52.626;-8.668;2022-10-16T05:47:04;2.33;;;0.90;;
64351;SDS011;50680;52.626;-8.668;2022-10-16T05:49:31;7.55;;;2.20;;
64351;SDS011;50680;52.626;-8.668;2022-10-16T05:52:01;11.98;;;2.63;;
64351;SDS011;50680;52.626;-8.668;2022-10-16T05:54:28;8.65;;;2.08;;
64351;SDS011;50680;52.626;-8.668;2022-10-16T05:56:55;8.30;;;1.15;;
64351;SDS011;50680;52.626;-8.668;2022-10-16T05:59:22;6.95;;;1.75;;
64351;SDS011;50680;52.626;-8.668;2022-10-16T06:01:49;13.05;;;1.42;;
64351;SDS011;50680;52.626;-8.668;2022-10-16T06:04:16;7.13;;;1.00;;
64351;SDS011;50680;52.626;-8.668;2022-10-16T06:06:42;7.93;;;1.17;;
64351;SDS011;50680;52.626;-8.668;2022-10-16T06:09:10;8.15;;;1.55;;
64351;SDS011;50680;52.626;-8.668;2022-10-16T06:11:36;5.45;;;0.80;;
64351;SDS011;50680;52.626;-8.668;2022-10-16T06:14:03;9.82;;;1.85;;
64351;SDS011;50680;52.626;-8.668;2022-10-16T06:16:34;9.00;;;2.45;;
64351;SDS011;50680;52.626;-8.668;2022-10-16T06:19:02;6.45;;;1.42;;
64351;SDS011;50680;52.626;-8.668;2022-10-16T06:21:32;5.03;;;1.13;;
64351;SDS011;50680;52.626;-8.668;2022-10-16T06:24:00;3.70;;;1.00;;
64351;SDS011;50680;52.626;-8.668;2022-10-16T06:26:27;7.25;;;0.90;;
64351;SDS011;50680;52.626;-8.668;2022-10-16T06:28:56;2.67;;;0.88;;
64351;SDS011;50680;52.626;-8.668;2022-10-16T06:31:24;10.63;;;1.73;;
64351;SDS011;50680;52.626;-8.668;2022-10-16T06:33:57;8.02;;;2.83;;
64351;SDS011;50680;52.626;-8.668;2022-10-16T06:36:24;15.15;;;3.47;;
64351;SDS011;50680;52.626;-8.668;2022-10-16T06:38:52;11.13;;;3.40;;
64351;SDS011;50680;52.626;-8.668;2022-10-16T06:41:20;7.72;;;2.35;;
64351;SDS011;50680;52.626;-8.668;2022-10-16T06:43:48;3.40;;;1.33;;
64351;SDS011;50680;52.626;-8.668;2022-10-16T06:46:16;11.02;;;1.90;;
64351;SDS011;50680;52.626;-8.668;2022-10-16T06:48:45;11.50;;;2.47;;
64351;SDS011;50680;52.626;-8.668;2022-10-16T06:51:13;9.15;;;2.60;;
64351;SDS011;50680;52.626;-8.668;2022-10-16T06:53:43;8.95;;;1.83;;
64351;SDS011;50680;52.626;-8.668;2022-10-16T06:56:29;5.05;;;1.10;;
64351;SDS011;50680;52.626;-8.668;2022-10-16T06:58:57;5.93;;;1.08;;
64351;SDS011;50680;52.626;-8.668;2022-10-16T07:01:25;3.83;;;0.90;;
64351;SDS011;50680;52.626;-8.668;2022-10-16T07:03:52;8.48;;;1.38;;
64351;SDS011;50680;52.626;-8.668;2022-10-16T07:06:20;9.93;;;1.92;;
64351;SDS011;50680;52.626;-8.668;2022-10-16T07:08:48;6.35;;;1.02;;
64351;SDS011;50680;52.626;-8.668;2022-10-16T07:11:19;7.82;;;1.35;;
64351;SDS011;50680;52.626;-8.668;2022-10-16T07:13:48;8.93;;;1.30;;
64351;SDS011;50680;52.626;-8.668;2022-10-16T07:16:25;14.18;;;1.40;;
64351;SDS011;50680;52.626;-8.668;2022-10-16T07:18:54;8.25;;;1.33;;
64351;SDS011;50680;52.626;-8.668;2022-10-16T07:24:00;6.95;;;1.30;;
64351;SDS011;50680;52.626;-8.668;2022-10-16T07:26:30;6.53;;;1.50;;
64351;SDS011;50680;52.626;-8.668;2022-10-16T07:28:58;6.35;;;1.45;;
64351;SDS011;50680;52.626;-8.668;2022-10-16T07:31:26;5.60;;;1.85;;
64351;SDS011;50680;52.626;-8.668;2022-10-16T07:33:54;8.65;;;1.90;;
64351;SDS011;50680;52.626;-8.668;2022-10-16T07:36:21;8.73;;;2.10;;
64351;SDS011;50680;52.626;-8.668;2022-10-16T07:38:48;13.45;;;2.33;;
64351;SDS011;50680;52.626;-8.668;2022-10-16T07:41:20;10.48;;;1.85;;
64351;SDS011;50680;52.626;-8.668;2022-10-16T07:43:48;7.72;;;1.13;;
64351;SDS011;50680;52.626;-8.668;2022-10-16T07:46:17;6.63;;;0.80;;
64351;SDS011;50680;52.626;-8.668;2022-10-16T07:48:45;8.25;;;0.85;;
64351;SDS011;50680;52.626;-8.668;2022-10-16T07:51:14;2.90;;;0.70;;
64351;SDS011;50680;52.626;-8.668;2022-10-16T07:53:43;6.55;;;0.80;;
64351;SDS011;50680;52.626;-8.668;2022-10-16T07:56:10;4.55;;;0.50;;
64351;SDS011;50680;52.626;-8.668;2022-10-16T07:58:38;5.13;;;0.88;;
64351;SDS011;50680;52.626;-8.668;2022-10-16T08:01:09;3.67;;;0.80;;
64351;SDS011;50680;52.626;-8.668;2022-10-16T08:03:38;6.82;;;1.13;;
64351;SDS011;50680;52.626;-8.668;2022-10-16T08:06:05;6.35;;;1.30;;
64351;SDS011;50680;52.626;-8.668;2022-10-16T08:08:32;9.23;;;0.90;;
64351;SDS011;50680;52.626;-8.668;2022-10-16T08:10:59;3.90;;;1.27;;
64351;SDS011;50680;52.626;-8.668;2022-10-16T08:13:26;5.15;;;0.90;;
64351;SDS011;50680;52.626;-8.668;2022-10-16T08:15:53;6.00;;;1.52;;
64351;SDS011;50680;52.626;-8.668;2022-10-16T08:18:20;4.78;;;1.10;;
64351;SDS011;50680;52.626;-8.668;2022-10-16T08:20:47;5.55;;;1.27;;
64351;SDS011;50680;52.626;-8.668;2022-10-16T08:23:14;5.68;;;1.13;;
64351;SDS011;50680;52.626;-8.668;2022-10-16T08:25:41;6.88;;;1.10;;
64351;SDS011;50680;52.626;-8.668;2022-10-16T08:28:08;10.35;;;0.93;;
64351;SDS011;50680;52.626;-8.668;2022-10-16T08:30:36;7.00;;;0.90;;
64351;SDS011;50680;52.626;-8.668;2022-10-16T08:33:04;7.47;;;1.15;;
64351;SDS011;50680;52.626;-8.668;2022-10-16T08:35:32;2.60;;;0.80;;
64351;SDS011;50680;52.626;-8.668;2022-10-16T08:37:59;4.80;;;0.88;;
64351;SDS011;50680;52.626;-8.668;2022-10-16T08:40:29;9.98;;;0.93;;
64351;SDS011;50680;52.626;-8.668;2022-10-16T08:51:04;3.58;;;1.08;;
64351;SDS011;50680;52.626;-8.668;2022-10-16T08:53:55;6.85;;;1.42;;
64351;SDS011;50680;52.626;-8.668;2022-10-16T08:56:22;11.23;;;1.95;;
64351;SDS011;50680;52.626;-8.668;2022-10-16T08:58:49;4.28;;;1.70;;
64351;SDS011;50680;52.626;-8.668;2022-10-16T09:01:24;7.70;;;2.00;;
64351;SDS011;50680;52.626;-8.668;2022-10-16T09:09:50;8.52;;;1.60;;
64351;SDS011;50680;52.626;-8.668;2022-10-16T09:12:42;5.32;;;2.60;;
64351;SDS011;50680;52.626;-8.668;2022-10-16T09:15:47;7.78;;;1.80;;
64351;SDS011;50680;52.626;-8.668;2022-10-16T09:18:26;10.35;;;1.70;;
64351;SDS011;50680;52.626;-8.668;2022-10-16T09:23:48;6.20;;;2.20;;
64351;SDS011;50680;52.626;-8.668;2022-10-16T09:26:16;5.72;;;1.90;;
64351;SDS011;50680;52.626;-8.668;2022-10-16T09:28:46;7.22;;;2.00;;
64351;SDS011;50680;52.626;-8.668;2022-10-16T09:31:17;7.45;;;2.60;;
64351;SDS011;50680;52.626;-8.668;2022-10-16T09:33:48;7.05;;;1.88;;
64351;SDS011;50680;52.626;-8.668;2022-10-16T09:36:20;10.27;;;1.15;;
64351;SDS011;50680;52.626;-8.668;2022-10-16T09:38:49;4.70;;;0.85;;
64351;SDS011;50680;52.626;-8.668;2022-10-16T09:41:20;7.85;;;1.35;;
64351;SDS011;50680;52.626;-8.668;2022-10-16T09:43:52;7.93;;;1.55;;
64351;SDS011;50680;52.626;-8.668;2022-10-16T09:46:29;3.20;;;1.00;;
64351;SDS011;50680;52.626;-8.668;2022-10-16T09:48:57;4.15;;;0.93;;
64351;SDS011;50680;52.626;-8.668;2022-10-16T09:51:27;12.27;;;1.27;;
64351;SDS011;50680;52.626;-8.668;2022-10-16T09:54:01;6.35;;;1.70;;
64351;SDS011;50680;52.626;-8.668;2022-10-16T09:56:49;7.88;;;1.83;;
64351;SDS011;50680;52.626;-8.668;2022-10-16T09:59:19;15.20;;;2.28;;
64351;SDS011;50680;52.626;-8.668;2022-10-16T10:01:53;5.05;;;2.05;;
64351;SDS011;50680;52.626;-8.668;2022-10-16T10:04:22;5.85;;;1.42;;
64351;SDS011;50680;52.626;-8.668;2022-10-16T10:06:52;6.78;;;1.10;;
64351;SDS011;50680;52.626;-8.668;2022-10-16T10:09:22;6.65;;;0.90;;
64351;SDS011;50680;52.626;-8.668;2022-10-16T10:12:00;7.40;;;1.35;;
64351;SDS011;50680;52.626;-8.668;2022-10-16T10:14:41;3.40;;;1.02;;
64351;SDS011;50680;52.626;-8.668;2022-10-16T10:17:14;4.78;;;0.93;;
64351;SDS011;50680;52.626;-8.668;2022-10-16T10:19:46;5.32;;;1.23;;
64351;SDS011;50680;52.626;-8.668;2022-10-16T10:22:21;4.97;;;1.13;;
64351;SDS011;50680;52.626;-8.668;2022-10-16T10:27:39;3.53;;;1.35;;
64351;SDS011;50680;52.626;-8.668;2022-10-16T10:30:27;2.63;;;0.70;;
64351;SDS011;50680;52.626;-8.668;2022-10-16T10:46:58;4.32;;;1.15;;
64351;SDS011;50680;52.626;-8.668;2022-10-16T11:00:49;11.68;;;2.03;;
64351;SDS011;50680;52.626;-8.668;2022-10-16T11:03:45;4.03;;;1.50;;
64351;SDS011;50680;52.626;-8.668;2022-10-16T11:09:18;4.93;;;1.40;;
64351;SDS011;50680;52.626;-8.668;2022-10-16T11:11:58;5.20;;;1.63;;
64351;SDS011;50680;52.626;-8.668;2022-10-16T11:17:28;4.05;;;1.35;;
64351;SDS011;50680;52.626;-8.668;2022-10-16T11:20:18;5.25;;;1.10;;
64351;SDS011;50680;52.626;-8.668;2022-10-16T11:22:56;6.93;;;1.85;;
64351;SDS011;50680;52.626;-8.668;2022-10-16T11:25:30;7.05;;;1.88;;
64351;SDS011;50680;52.626;-8.668;2022-10-16T11:31:08;4.97;;;1.42;;
64351;SDS011;50680;52.626;-8.668;2022-10-16T11:33:42;5.82;;;1.83;;
64351;SDS011;50680;52.626;-8.668;2022-10-16T11:36:19;6.13;;;1.50;;
64351;SDS011;50680;52.626;-8.668;2022-10-16T11:50:56;7.35;;;1.40;;
64351;SDS011;50680;52.626;-8.668;2022-10-16T11:53:42;7.82;;;0.63;;
64351;SDS011;50680;52.626;-8.668;2022-10-16T11:56:32;7.32;;;0.60;;
64351;SDS011;50680;52.626;-8.668;2022-10-16T11:59:13;7.38;;;0.90;;
64351;SDS011;50680;52.626;-8.668;2022-10-16T12:10:32;2.63;;;0.70;;
64351;SDS011;50680;52.626;-8.668;2022-10-16T12:18:43;9.23;;;2.55;;
64351;SDS011;50680;52.626;-8.668;2022-10-16T12:21:13;5.28;;;1.88;;
64351;SDS011;50680;52.626;-8.668;2022-10-16T12:23:52;11.27;;;2.40;;
64351;SDS011;50680;52.626;-8.668;2022-10-16T12:26:27;5.68;;;2.40;;
64351;SDS011;50680;52.626;-8.668;2022-10-16T12:29:08;6.68;;;2.60;;
64351;SDS011;50680;52.626;-8.668;2022-10-16T12:31:44;8.50;;;1.40;;
64351;SDS011;50680;52.626;-8.668;2022-10-16T12:34:25;14.43;;;1.98;;
64351;SDS011;50680;52.626;-8.668;2022-10-16T12:39:48;5.18;;;1.58;;
64351;SDS011;50680;52.626;-8.668;2022-10-16T12:44:53;5.75;;;1.30;;
64351;SDS011;50680;52.626;-8.668;2022-10-16T12:47:22;4.65;;;1.38;;
64351;SDS011;50680;52.626;-8.668;2022-10-16T12:49:58;5.60;;;1.63;;
64351;SDS011;50680;52.626;-8.668;2022-10-16T12:55:00;3.70;;;1.08;;
64351;SDS011;50680;52.626;-8.668;2022-10-16T13:16:54;6.88;;;1.75;;
64351;SDS011;50680;52.626;-8.668;2022-10-16T13:19:45;8.25;;;2.08;;
64351;SDS011;50680;52.626;-8.668;2022-10-16T13:30:29;6.65;;;3.70;;
64351;SDS011;50680;52.626;-8.668;2022-10-16T13:33:05;6.05;;;1.98;;
64351;SDS011;50680;52.626;-8.668;2022-10-16T13:35:46;5.43;;;3.50;;
64351;SDS011;50680;52.626;-8.668;2022-10-16T13:38:17;7.15;;;1.90;;
64351;SDS011;50680;52.626;-8.668;2022-10-16T13:46:03;10.43;;;1.58;;
64351;SDS011;50680;52.626;-8.668;2022-10-16T13:48:32;13.23;;;2.03;;
64351;SDS011;50680;52.626;-8.668;2022-10-16T13:51:01;8.65;;;2.00;;
64351;SDS011;50680;52.626;-8.668;2022-10-16T13:53:46;7.50;;;1.50;;
64351;SDS011;50680;52.626;-8.668;2022-10-16T13:56:14;5.70;;;1.70;;
64351;SDS011;50680;52.626;-8.668;2022-10-16T13:58:57;10.43;;;2.00;;
64351;SDS011;50680;52.626;-8.668;2022-10-16T14:01:30;6.05;;;1.25;;
64351;SDS011;50680;52.626;-8.668;2022-10-16T14:04:04;2.47;;;1.00;;
64351;SDS011;50680;52.626;-8.668;2022-10-16T14:06:34;9.90;;;1.40;;
64351;SDS011;50680;52.626;-8.668;2022-10-16T14:09:07;5.95;;;1.80;;
64351;SDS011;50680;52.626;-8.668;2022-10-16T14:11:45;5.70;;;0.90;;
64351;SDS011;50680;52.626;-8.668;2022-10-16T14:14:15;4.97;;;1.27;;
64351;SDS011;50680;52.626;-8.668;2022-10-16T14:16:42;5.70;;;1.52;;
64351;SDS011;50680;52.626;-8.668;2022-10-16T14:19:15;4.40;;;1.20;;
64351;SDS011;50680;52.626;-8.668;2022-10-16T14:21:52;3.22;;;1.27;;
64351;SDS011;50680;52.626;-8.668;2022-10-16T14:24:24;5.80;;;1.30;;
64351;SDS011;50680;52.626;-8.668;2022-10-16T14:26:51;11.38;;;1.27;;
64351;SDS011;50680;52.626;-8.668;2022-10-16T14:29:21;12.35;;;1.55;;
64351;SDS011;50680;52.626;-8.668;2022-10-16T14:32:00;8.93;;;1.80;;
64351;SDS011;50680;52.626;-8.668;2022-10-16T14:34:33;3.42;;;1.40;;
64351;SDS011;50680;52.626;-8.668;2022-10-16T14:42:21;11.32;;;2.35;;
64351;SDS011;50680;52.626;-8.668;2022-10-16T14:44:51;8.20;;;2.00;;
64351;SDS011;50680;52.626;-8.668;2022-10-16T14:47:21;8.90;;;1.90;;
64351;SDS011;50680;52.626;-8.668;2022-10-16T14:49:53;10.00;;;1.75;;
64351;SDS011;50680;52.626;-8.668;2022-10-16T14:52:22;16.52;;;3.38;;
64351;SDS011;50680;52.626;-8.668;2022-10-16T14:54:49;18.88;;;2.88;;
64351;SDS011;50680;52.626;-8.668;2022-10-16T14:57:20;9.70;;;3.58;;
64351;SDS011;50680;52.626;-8.668;2022-10-16T14:59:50;13.20;;;2.33;;
64351;SDS011;50680;52.626;-8.668;2022-10-16T15:04:51;9.65;;;2.35;;
64351;SDS011;50680;52.626;-8.668;2022-10-16T15:07:18;11.40;;;2.28;;
64351;SDS011;50680;52.626;-8.668;2022-10-16T15:09:46;8.95;;;2.20;;
64351;SDS011;50680;52.626;-8.668;2022-10-16T15:12:15;8.48;;;1.73;;
64351;SDS011;50680;52.626;-8.668;2022-10-16T15:14:42;7.57;;;2.10;;
64351;SDS011;50680;52.626;-8.668;2022-10-16T15:17:09;10.48;;;2.80;;
64351;SDS011;50680;52.626;-8.668;2022-10-16T15:19:36;8.68;;;2.00;;
64351;SDS011;50680;52.626;-8.668;2022-10-16T15:22:04;9.77;;;2.47;;
64351;SDS011;50680;52.626;-8.668;2022-10-16T15:24:31;10.00;;;3.33;;
64351;SDS011;50680;52.626;-8.668;2022-10-16T15:26:58;12.45;;;3.42;;
64351;SDS011;50680;52.626;-8.668;2022-10-16T15:29:24;12.45;;;4.05;;
64351;SDS011;50680;52.626;-8.668;2022-10-16T15:31:51;11.73;;;3.50;;
64351;SDS011;50680;52.626;-8.668;2022-10-16T15:34:18;13.07;;;4.07;;
64351;SDS011;50680;52.626;-8.668;2022-10-16T15:36:46;11.90;;;4.22;;
64351;SDS011;50680;52.626;-8.668;2022-10-16T15:41:41;9.07;;;2.25;;
64351;SDS011;50680;52.626;-8.668;2022-10-16T15:44:09;8.80;;;2.45;;
64351;SDS011;50680;52.626;-8.668;2022-10-16T15:46:35;8.40;;;1.92;;
64351;SDS011;50680;52.626;-8.668;2022-10-16T15:49:03;9.40;;;1.85;;
64351;SDS011;50680;52.626;-8.668;2022-10-16T15:51:30;8.75;;;3.00;;
64351;SDS011;50680;52.626;-8.668;2022-10-16T15:53:59;4.15;;;1.77;;
64351;SDS011;50680;52.626;-8.668;2022-10-16T15:56:28;10.85;;;3.00;;
64351;SDS011;50680;52.626;-8.668;2022-10-16T15:58:55;9.60;;;3.10;;
64351;SDS011;50680;52.626;-8.668;2022-10-16T16:01:23;12.38;;;3.15;;
64351;SDS011;50680;52.626;-8.668;2022-10-16T16:03:53;10.75;;;2.88;;
64351;SDS011;50680;52.626;-8.668;2022-10-16T16:06:21;11.00;;;3.63;;
64351;SDS011;50680;52.626;-8.668;2022-10-16T16:08:50;14.05;;;3.00;;
64351;SDS011;50680;52.626;-8.668;2022-10-16T16:11:18;11.35;;;3.20;;
64351;SDS011;50680;52.626;-8.668;2022-10-16T16:13:45;9.88;;;3.90;;
64351;SDS011;50680;52.626;-8.668;2022-10-16T16:16:13;10.27;;;2.60;;
64351;SDS011;50680;52.626;-8.668;2022-10-16T16:18:42;4.18;;;1.90;;
64351;SDS011;50680;52.626;-8.668;2022-10-16T16:21:12;8.60;;;2.15;;
64351;SDS011;50680;52.626;-8.668;2022-10-16T16:23:39;5.93;;;2.30;;
64351;SDS011;50680;52.626;-8.668;2022-10-16T16:26:08;4.85;;;2.97;;
64351;SDS011;50680;52.626;-8.668;2022-10-16T16:28:50;10.75;;;2.65;;
64351;SDS011;50680;52.626;-8.668;2022-10-16T16:31:17;7.63;;;2.70;;
64351;SDS011;50680;52.626;-8.668;2022-10-16T16:33:44;10.63;;;3.17;;
64351;SDS011;50680;52.626;-8.668;2022-10-16T16:36:11;10.82;;;3.70;;
64351;SDS011;50680;52.626;-8.668;2022-10-16T16:38:41;5.63;;;2.33;;
64351;SDS011;50680;52.626;-8.668;2022-10-16T16:41:15;8.13;;;2.38;;
64351;SDS011;50680;52.626;-8.668;2022-10-16T16:43:46;5.40;;;2.40;;
64351;SDS011;50680;52.626;-8.668;2022-10-16T16:48:44;12.82;;;2.80;;
64351;SDS011;50680;52.626;-8.668;2022-10-16T16:51:12;8.60;;;2.22;;
64351;SDS011;50680;52.626;-8.668;2022-10-16T16:53:46;13.90;;;2.90;;
64351;SDS011;50680;52.626;-8.668;2022-10-16T16:56:15;12.27;;;2.28;;
64351;SDS011;50680;52.626;-8.668;2022-10-16T16:58:47;18.42;;;3.42;;
64351;SDS011;50680;52.626;-8.668;2022-10-16T17:03:47;14.23;;;3.60;;
64351;SDS011;50680;52.626;-8.668;2022-10-16T17:06:17;14.82;;;3.08;;
64351;SDS011;50680;52.626;-8.668;2022-10-16T17:08:46;12.50;;;2.58;;
64351;SDS011;50680;52.626;-8.668;2022-10-16T17:11:15;10.48;;;2.72;;
64351;SDS011;50680;52.626;-8.668;2022-10-16T17:13:44;6.60;;;2.50;;
64351;SDS011;50680;52.626;-8.668;2022-10-16T17:16:11;8.55;;;2.25;;
64351;SDS011;50680;52.626;-8.668;2022-10-16T17:18:38;11.57;;;2.20;;
64351;SDS011;50680;52.626;-8.668;2022-10-16T17:21:07;7.72;;;1.70;;
64351;SDS011;50680;52.626;-8.668;2022-10-16T17:23:35;6.65;;;1.20;;
64351;SDS011;50680;52.626;-8.668;2022-10-16T17:26:06;5.30;;;1.00;;
64351;SDS011;50680;52.626;-8.668;2022-10-16T17:28:37;5.28;;;0.70;;
64351;SDS011;50680;52.626;-8.668;2022-10-16T17:31:12;5.53;;;1.08;;
64351;SDS011;50680;52.626;-8.668;2022-10-16T17:33:41;5.57;;;1.00;;